Time;durP1;ratioP1;P1;durP2;ratioP2;P2;SDS_P1;SDS_P2;PMS_P1;PMS_P2;Temp;Humidity;BMP_temperature;BMP_pressure;BME280_temperature;BME280_humidity;BME280_pressure;Samples;Min_cycle;Max_cycle;Signal;HPM_P1;HPM_P2
2022/07/10 00:01:17;;;;;;;13.70;1.58;;;15.40;99.90;;;;;;5098171;28;20133;-76
2022/07/10 00:03:44;;;;;;;10.98;1.80;;;15.40;99.90;;;;;;5098107;28;20068;-76
2022/07/10 00:06:09;;;;;;;13.73;2.00;;;15.40;99.90;;;;;;5098344;28;20051;-76
2022/07/10 00:08:35;;;;;;;9.98;2.03;;;15.50;99.90;;;;;;5098703;28;20043;-76
2022/07/10 00:11:01;;;;;;;13.05;1.92;;;15.50;99.90;;;;;;5098123;28;20040;-76
2022/07/10 00:13:26;;;;;;;12.48;2.28;;;15.50;99.90;;;;;;5098773;28;20048;-76
2022/07/10 00:15:52;;;;;;;6.28;1.63;;;15.50;99.90;;;;;;5098673;28;20051;-77
2022/07/10 00:18:18;;;;;;;16.33;2.17;;;15.50;99.90;;;;;;5099671;28;20040;-76
2022/07/10 00:20:43;;;;;;;13.50;1.58;;;15.50;99.90;;;;;;5098330;28;20509;-76
2022/07/10 00:23:09;;;;;;;9.43;1.73;;;15.50;99.90;;;;;;5098208;28;20516;-76
2022/07/10 00:25:35;;;;;;;10.68;1.38;;;15.50;99.90;;;;;;5096734;28;20048;-76
2022/07/10 00:28:00;;;;;;;9.48;1.40;;;15.40;99.90;;;;;;5098257;28;20044;-76
2022/07/10 00:30:26;;;;;;;11.18;1.65;;;15.40;99.90;;;;;;5098332;28;20111;-76
2022/07/10 00:32:52;;;;;;;6.05;1.00;;;15.40;99.90;;;;;;5097629;28;20079;-76
2022/07/10 00:35:18;;;;;;;7.22;1.42;;;15.30;99.90;;;;;;5098151;28;20027;-76
2022/07/10 00:37:43;;;;;;;19.67;1.95;;;15.30;99.90;;;;;;5098174;28;20046;-76
2022/07/10 00:40:09;;;;;;;8.90;1.30;;;15.40;99.90;;;;;;5098190;28;20034;-76
2022/07/10 00:42:35;;;;;;;9.85;1.38;;;15.30;99.90;;;;;;5097933;28;20499;-76
2022/07/10 00:45:00;;;;;;;10.32;1.45;;;15.30;99.90;;;;;;5098142;28;20057;-76
2022/07/10 00:47:26;;;;;;;11.32;1.35;;;15.30;99.90;;;;;;5098145;28;20047;-76
2022/07/10 00:49:52;;;;;;;7.47;1.23;;;15.30;99.90;;;;;;5096564;28;20113;-76
2022/07/10 00:52:18;;;;;;;10.68;1.63;;;15.30;99.90;;;;;;5098194;28;20044;-76
2022/07/10 00:54:47;;;;;;;8.35;1.23;;;15.30;99.90;;;;;;5097484;28;20044;-76
2022/07/10 00:57:14;;;;;;;11.18;1.40;;;15.30;99.90;;;;;;5096613;28;20040;-76
2022/07/10 00:59:40;;;;;;;16.25;2.55;;;15.30;99.90;;;;;;5096989;28;20047;-76
2022/07/10 01:02:07;;;;;;;11.75;2.00;;;15.30;99.90;;;;;;5097787;28;20040;-76
2022/07/10 01:04:34;;;;;;;10.80;1.45;;;15.30;99.90;;;;;;5097085;28;20036;-77
2022/07/10 01:06:59;;;;;;;10.80;1.10;;;15.30;99.90;;;;;;5097771;28;20051;-76
2022/07/10 01:09:28;;;;;;;9.63;1.55;;;15.30;99.90;;;;;;5097282;28;20040;-76
2022/07/10 01:11:55;;;;;;;10.52;1.50;;;15.20;99.90;;;;;;5096894;28;20040;-76
2022/07/10 01:14:21;;;;;;;7.57;1.08;;;15.20;99.90;;;;;;5097114;28;20044;-76
2022/07/10 01:16:47;;;;;;;10.70;1.20;;;15.20;99.90;;;;;;5097229;28;20048;-77
2022/07/10 01:19:13;;;;;;;11.35;1.25;;;15.30;99.90;;;;;;5096969;28;20036;-76
2022/07/10 01:21:39;;;;;;;11.18;2.00;;;15.20;99.90;;;;;;5097185;28;20047;-76
2022/07/10 01:24:07;;;;;;;12.18;2.05;;;15.20;99.90;;;;;;5096692;28;20047;-76
2022/07/10 01:26:33;;;;;;;7.22;1.15;;;15.20;99.90;;;;;;5096610;28;20441;-77
2022/07/10 01:29:03;;;;;;;14.02;1.67;;;15.20;99.90;;;;;;5096883;28;20036;-76
2022/07/10 01:31:29;;;;;;;13.32;1.83;;;15.10;99.90;;;;;;5096420;28;20390;-76
2022/07/10 01:33:55;;;;;;;7.45;1.50;;;15.10;99.90;;;;;;5096871;28;20036;-76
2022/07/10 01:36:22;;;;;;;6.28;1.38;;;15.10;99.90;;;;;;5096448;28;20048;-76
2022/07/10 01:38:50;;;;;;;8.45;1.40;;;15.10;99.90;;;;;;5097933;28;20044;-76
2022/07/10 01:41:16;;;;;;;9.38;1.63;;;15.20;99.90;;;;;;5097228;28;20044;-76
2022/07/10 01:43:43;;;;;;;11.23;1.92;;;15.20;99.90;;;;;;5097852;28;20462;-76
2022/07/10 01:46:11;;;;;;;9.02;1.60;;;15.10;99.90;;;;;;5096382;28;20040;-76
2022/07/10 01:48:37;;;;;;;9.55;1.10;;;15.10;99.90;;;;;;5097298;28;20047;-76
2022/07/10 01:51:03;;;;;;;15.07;2.70;;;15.20;99.90;;;;;;5096020;28;20459;-76
2022/07/10 01:53:29;;;;;;;9.77;1.23;;;15.20;99.90;;;;;;5096858;28;20479;-76
2022/07/10 01:55:55;;;;;;;10.65;1.30;;;15.20;99.90;;;;;;5096650;28;20076;-76
2022/07/10 01:58:21;;;;;;;7.22;1.40;;;15.20;99.90;;;;;;5096284;28;20040;-76
2022/07/10 02:00:47;;;;;;;9.23;1.60;;;15.20;99.90;;;;;;5097514;28;20050;-77
2022/07/10 02:05:57;;;;;;;9.07;1.63;;;15.20;99.90;;;;;;5096537;28;20051;-76
2022/07/10 02:08:23;;;;;;;8.35;1.45;;;15.20;99.90;;;;;;5096205;28;20040;-76
2022/07/10 02:10:49;;;;;;;14.93;1.92;;;15.20;99.90;;;;;;5096438;28;20081;-76
2022/07/10 02:13:17;;;;;;;11.73;1.40;;;15.20;99.90;;;;;;5096280;28;20394;-76
2022/07/10 02:15:43;;;;;;;10.57;1.85;;;15.20;99.90;;;;;;5095753;28;20040;-76
2022/07/10 02:18:09;;;;;;;10.82;1.50;;;15.30;99.90;;;;;;5096778;28;20043;-76
2022/07/10 02:20:36;;;;;;;10.27;1.90;;;15.30;99.90;;;;;;5096123;28;20422;-76
2022/07/10 02:23:02;;;;;;;8.95;1.33;;;15.30;99.90;;;;;;5112147;28;20127;-76
2022/07/10 02:25:27;;;;;;;11.50;1.60;;;15.30;99.90;;;;;;5094974;28;20091;-76
2022/07/10 02:27:53;;;;;;;9.32;1.85;;;15.30;99.90;;;;;;5097053;28;20092;-76
2022/07/10 02:30:19;;;;;;;10.32;1.40;;;15.30;99.90;;;;;;5096448;28;20040;-76
2022/07/10 02:32:45;;;;;;;12.60;1.95;;;15.30;99.90;;;;;;5096525;28;20055;-76
2022/07/10 02:35:10;;;;;;;7.97;1.35;;;15.30;99.90;;;;;;5096982;28;20048;-76
2022/07/10 02:37:36;;;;;;;10.18;1.30;;;15.40;99.90;;;;;;5096046;28;20470;-76
2022/07/10 02:40:02;;;;;;;13.45;1.92;;;15.30;99.90;;;;;;5095330;28;20051;-76
2022/07/10 02:42:28;;;;;;;5.93;1.25;;;15.30;99.90;;;;;;5095399;28;20436;-76
2022/07/10 02:44:53;;;;;;;12.52;1.80;;;15.40;99.90;;;;;;5095323;28;20478;-76
2022/07/10 02:47:19;;;;;;;10.75;1.98;;;15.40;99.90;;;;;;5095184;28;20051;-76
2022/07/10 02:49:44;;;;;;;7.00;1.92;;;15.40;99.90;;;;;;5095178;28;20040;-76
2022/07/10 02:52:10;;;;;;;8.00;1.30;;;15.40;99.90;;;;;;5096359;28;20080;-76
2022/07/10 02:54:36;;;;;;;17.75;2.15;;;15.40;99.90;;;;;;5094991;28;20046;-76
2022/07/10 02:57:02;;;;;;;8.02;2.08;;;15.40;99.90;;;;;;5095585;28;20359;-76
2022/07/10 02:59:27;;;;;;;8.63;1.58;;;15.40;99.90;;;;;;5095648;28;20036;-76
2022/07/10 03:01:53;;;;;;;14.02;1.73;;;15.50;99.90;;;;;;5096424;28;20058;-76
2022/07/10 03:04:19;;;;;;;7.97;2.05;;;15.50;99.90;;;;;;5094944;28;20051;-76
2022/07/10 03:06:44;;;;;;;12.65;1.85;;;15.40;99.90;;;;;;5096226;28;20541;-76
2022/07/10 03:09:10;;;;;;;9.65;1.98;;;15.50;99.90;;;;;;5095529;28;20488;-76
2022/07/10 03:11:35;;;;;;;10.60;1.67;;;15.40;99.90;;;;;;5095422;28;20051;-76
2022/07/10 03:14:01;;;;;;;10.95;2.17;;;15.40;99.90;;;;;;5095202;28;20119;-76
2022/07/10 03:16:27;;;;;;;11.32;2.40;;;15.40;99.90;;;;;;5095329;28;20085;-76
2022/07/10 03:18:52;;;;;;;12.45;1.60;;;15.40;99.90;;;;;;5095019;28;20048;-76
2022/07/10 03:21:18;;;;;;;10.50;2.13;;;15.40;99.90;;;;;;5094841;28;20140;-76
2022/07/10 03:23:43;;;;;;;10.90;1.95;;;15.40;99.90;;;;;;5094001;28;20440;-76
2022/07/10 03:26:09;;;;;;;12.43;2.10;;;15.50;99.90;;;;;;5094362;28;20101;-76
2022/07/10 03:28:35;;;;;;;16.05;2.08;;;15.50;99.90;;;;;;5093238;28;20040;-76
2022/07/10 03:31:02;;;;;;;7.68;2.22;;;15.50;99.90;;;;;;5092772;28;20048;-76
2022/07/10 03:33:28;;;;;;;11.07;1.83;;;15.40;99.90;;;;;;5093539;28;20130;-77
2022/07/10 03:35:54;;;;;;;8.88;2.83;;;15.40;99.90;;;;;;5092614;28;20173;-76
2022/07/10 03:38:19;;;;;;;12.45;2.13;;;15.50;99.90;;;;;;5093538;28;20130;-76
2022/07/10 03:40:47;;;;;;;17.50;2.45;;;15.50;99.90;;;;;;5092500;28;20044;-76
2022/07/10 03:43:14;;;;;;;9.45;1.90;;;15.50;99.90;;;;;;5093675;28;20052;-76
2022/07/10 03:45:40;;;;;;;12.60;2.50;;;15.50;99.90;;;;;;5093390;28;20505;-76
2022/07/10 03:48:05;;;;;;;9.80;1.90;;;15.60;99.90;;;;;;5093402;28;20048;-77
2022/07/10 03:50:31;;;;;;;15.50;2.55;;;15.60;99.90;;;;;;5093450;28;20043;-76
2022/07/10 03:52:56;;;;;;;17.77;2.65;;;15.60;99.90;;;;;;5093606;28;20127;-76
2022/07/10 03:55:22;;;;;;;13.55;2.17;;;15.60;99.90;;;;;;5093635;28;20039;-77
2022/07/10 03:57:53;;;;;;;16.48;2.28;;;15.60;99.90;;;;;;5093495;28;20397;-76
2022/07/10 04:00:24;;;;;;;15.50;2.47;;;15.70;99.90;;;;;;5092344;28;20051;-75
2022/07/10 04:03:04;;;;;;;11.13;2.13;;;15.70;99.90;;;;;;5093407;28;20483;-76
2022/07/10 04:05:31;;;;;;;7.15;2.20;;;15.70;99.90;;;;;;5093508;28;20048;-76
2022/07/10 04:07:58;;;;;;;12.75;2.80;;;15.70;99.90;;;;;;5093244;28;20403;-77
2022/07/10 04:10:26;;;;;;;10.18;1.67;;;15.70;99.90;;;;;;5093232;28;20498;-76
2022/07/10 04:12:52;;;;;;;12.98;2.38;;;15.70;99.90;;;;;;5093328;28;20062;-76
2022/07/10 04:15:18;;;;;;;9.05;1.67;;;15.70;99.90;;;;;;5093071;28;20426;-76
2022/07/10 04:17:43;;;;;;;14.25;2.15;;;15.70;99.90;;;;;;5093309;28;20054;-76
2022/07/10 04:20:10;;;;;;;9.98;2.15;;;15.80;99.90;;;;;;5093040;28;20052;-77
2022/07/10 04:22:36;;;;;;;11.25;1.95;;;15.70;99.90;;;;;;5091791;28;20048;-76
2022/07/10 04:25:02;;;;;;;7.45;1.17;;;15.70;99.90;;;;;;5093167;28;20547;-76
2022/07/10 04:27:27;;;;;;;13.13;2.85;;;15.70;99.90;;;;;;5091684;28;20048;-76
2022/07/10 04:29:53;;;;;;;13.13;1.80;;;15.70;99.90;;;;;;5091737;28;20057;-76
2022/07/10 04:32:19;;;;;;;7.97;1.65;;;15.70;99.90;;;;;;5096034;28;20047;-76
2022/07/10 04:34:44;;;;;;;12.23;2.13;;;15.70;99.90;;;;;;5096800;28;20075;-76
2022/07/10 04:37:10;;;;;;;7.20;2.25;;;15.80;99.90;;;;;;5096766;28;20044;-76
2022/07/10 04:39:37;;;;;;;15.02;2.50;;;15.70;99.90;;;;;;5096947;28;20174;-76
2022/07/10 04:42:07;;;;;;;15.98;2.28;;;15.70;99.90;;;;;;5096840;28;20054;-77
2022/07/10 04:44:33;;;;;;;11.80;2.55;;;15.70;99.90;;;;;;5096629;28;20040;-76
2022/07/10 04:46:59;;;;;;;16.05;3.55;;;15.60;99.90;;;;;;5095194;28;20109;-76
2022/07/10 04:49:25;;;;;;;14.20;2.80;;;15.60;99.90;;;;;;5096734;28;20048;-76
2022/07/10 04:51:51;;;;;;;14.68;2.45;;;15.60;99.90;;;;;;5095185;28;20088;-76
2022/07/10 04:54:17;;;;;;;15.30;2.42;;;15.60;99.90;;;;;;5096331;28;20048;-76
2022/07/10 04:56:43;;;;;;;12.52;2.47;;;15.60;99.90;;;;;;5096493;28;20072;-76
2022/07/10 04:59:09;;;;;;;14.15;1.90;;;15.60;99.90;;;;;;5096374;28;20054;-76
2022/07/10 05:01:37;;;;;;;9.60;2.53;;;15.60;99.90;;;;;;5096485;28;20048;-76
2022/07/10 05:04:02;;;;;;;11.95;2.47;;;15.70;99.90;;;;;;5096525;28;20083;-77
2022/07/10 05:06:28;;;;;;;7.68;2.00;;;15.60;99.90;;;;;;5096337;28;20086;-76
2022/07/10 05:08:54;;;;;;;11.40;2.83;;;15.70;99.90;;;;;;5096262;28;20079;-77
2022/07/10 05:11:20;;;;;;;9.90;2.05;;;15.70;99.90;;;;;;5094830;28;20139;-76
2022/07/10 05:13:48;;;;;;;9.15;2.15;;;15.70;99.90;;;;;;5096313;28;20048;-76
2022/07/10 05:16:14;;;;;;;13.00;2.20;;;15.70;99.90;;;;;;5096183;28;20105;-77
2022/07/10 05:18:40;;;;;;;17.60;2.80;;;15.70;99.90;;;;;;5096041;28;20040;-76
2022/07/10 05:21:06;;;;;;;17.55;3.67;;;15.70;99.90;;;;;;5095978;28;20054;-76
2022/07/10 05:23:32;;;;;;;25.95;2.88;;;15.60;99.90;;;;;;5094616;28;20044;-77
2022/07/10 05:25:58;;;;;;;14.90;3.30;;;15.60;99.90;;;;;;5094604;28;20494;-77
2022/07/10 05:28:23;;;;;;;13.95;2.75;;;15.60;99.90;;;;;;5096072;28;20051;-77
2022/07/10 05:30:49;;;;;;;14.30;2.55;;;15.60;99.90;;;;;;5095976;28;20028;-76
2022/07/10 05:33:18;;;;;;;13.18;2.78;;;15.70;99.90;;;;;;5095871;28;20482;-77
2022/07/10 05:35:44;;;;;;;10.52;2.67;;;15.70;99.90;;;;;;5094343;28;20522;-77
2022/07/10 05:38:10;;;;;;;11.43;2.83;;;15.60;99.90;;;;;;5095784;28;20033;-76
2022/07/10 05:40:36;;;;;;;11.10;2.33;;;15.60;99.90;;;;;;5094308;28;20051;-76
2022/07/10 05:43:01;;;;;;;8.07;2.45;;;15.60;99.90;;;;;;5095292;28;20047;-76
2022/07/10 05:45:27;;;;;;;12.43;2.70;;;15.60;99.90;;;;;;5095824;28;20083;-77
2022/07/10 05:47:53;;;;;;;9.70;2.13;;;15.70;99.90;;;;;;5094111;28;20050;-76
2022/07/10 05:50:19;;;;;;;11.30;2.10;;;15.70;99.90;;;;;;5095491;28;20044;-77
2022/07/10 05:52:44;;;;;;;17.88;2.10;;;15.80;99.90;;;;;;5094278;28;20040;-77
2022/07/10 05:55:10;;;;;;;11.95;2.03;;;15.90;99.90;;;;;;5095478;28;20566;-76
2022/07/10 05:57:36;;;;;;;12.68;2.35;;;15.90;99.90;;;;;;5095377;28;20043;-77
2022/07/10 06:00:07;;;;;;;6.45;1.90;;;15.90;99.90;;;;;;5095346;28;20044;-77
2022/07/10 06:02:32;;;;;;;11.73;1.60;;;16.00;99.90;;;;;;5095353;28;20044;-77
2022/07/10 06:04:59;;;;;;;4.22;1.60;;;15.90;99.90;;;;;;5095036;28;20055;-77
2022/07/10 06:07:25;;;;;;;7.65;1.55;;;15.90;99.90;;;;;;5095186;28;20055;-77
2022/07/10 06:09:50;;;;;;;8.20;1.73;;;16.00;99.90;;;;;;5095133;28;20040;-76
2022/07/10 06:12:16;;;;;;;9.40;1.65;;;16.00;99.90;;;;;;5094843;28;20364;-77
2022/07/10 06:14:42;;;;;;;11.88;1.70;;;16.10;99.90;;;;;;5094807;28;20509;-77
2022/07/10 06:17:08;;;;;;;13.88;1.95;;;16.10;99.90;;;;;;5095071;28;20036;-77
2022/07/10 06:19:33;;;;;;;7.95;1.95;;;16.10;99.90;;;;;;5093287;28;20063;-77
2022/07/10 06:24:43;;;;;;;9.82;1.95;;;16.20;99.90;;;;;;5094702;28;20563;-76
2022/07/10 06:27:09;;;;;;;11.10;2.40;;;16.20;99.90;;;;;;5094781;28;20083;-76
2022/07/10 06:29:35;;;;;;;14.02;2.00;;;16.10;99.90;;;;;;5110587;28;20048;-76
2022/07/10 06:32:01;;;;;;;10.13;1.90;;;16.10;99.90;;;;;;5094532;28;20474;-76
2022/07/10 06:34:26;;;;;;;12.80;2.20;;;16.20;99.90;;;;;;5093453;28;20047;-76
2022/07/10 06:36:52;;;;;;;10.35;2.42;;;16.20;99.90;;;;;;5094500;28;20487;-76
2022/07/10 06:39:18;;;;;;;10.55;2.15;;;16.10;99.90;;;;;;5094606;28;20051;-76
2022/07/10 06:41:43;;;;;;;8.85;1.95;;;16.20;99.90;;;;;;5094293;28;20051;-75
2022/07/10 06:44:09;;;;;;;10.02;1.60;;;16.20;99.90;;;;;;5093273;28;20039;-76
2022/07/10 06:46:34;;;;;;;8.48;1.80;;;16.10;99.90;;;;;;5092920;28;20058;-76
2022/07/10 06:49:00;;;;;;;11.73;1.55;;;16.10;99.90;;;;;;5092998;28;20063;-75
2022/07/10 06:51:26;;;;;;;12.57;2.55;;;16.10;99.90;;;;;;5094404;28;20028;-76
2022/07/10 06:53:52;;;;;;;5.25;1.75;;;16.20;99.90;;;;;;5093349;28;20043;-77
2022/07/10 06:56:18;;;;;;;7.43;1.15;;;16.20;99.90;;;;;;5087023;28;20052;-76
2022/07/10 06:58:44;;;;;;;3.30;1.02;;;16.30;99.90;;;;;;5075575;28;20086;-76
2022/07/10 07:01:09;;;;;;;11.98;1.40;;;16.40;99.90;;;;;;5073538;28;20043;-76
2022/07/10 07:03:35;;;;;;;7.50;1.10;;;16.40;99.90;;;;;;5072530;28;20127;-76
2022/07/10 07:06:00;;;;;;;8.32;1.27;;;16.40;99.90;;;;;;5073481;28;20124;-76
2022/07/10 07:08:29;;;;;;;10.85;1.42;;;16.50;99.90;;;;;;5073783;28;20102;-75
2022/07/10 07:10:54;;;;;;;5.00;1.85;;;16.50;99.90;;;;;;5073665;28;20132;-76
2022/07/10 07:13:20;;;;;;;13.55;2.10;;;16.60;99.90;;;;;;5073767;28;20454;-76
2022/07/10 07:15:53;;;;;;;8.05;2.50;;;16.60;99.90;;;;;;5073574;28;20044;-76
2022/07/10 07:18:21;;;;;;;6.43;1.08;;;16.60;99.90;;;;;;5073681;28;20094;-76
2022/07/10 07:23:31;;;;;;;8.73;1.20;;;16.70;99.90;;;;;;5073223;28;20494;-76
2022/07/10 07:25:56;;;;;;;6.05;1.20;;;16.80;99.90;;;;;;5073167;28;20043;-76
2022/07/10 07:28:22;;;;;;;8.20;1.15;;;16.80;99.90;;;;;;5073248;28;20520;-76
2022/07/10 07:30:49;;;;;;;8.55;1.67;;;16.90;99.90;;;;;;5073553;28;20051;-76
2022/07/10 07:33:15;;;;;;;7.80;1.40;;;17.10;99.90;;;;;;5073443;28;20064;-76
2022/07/10 07:35:42;;;;;;;6.90;1.10;;;17.20;99.90;;;;;;5073124;28;20051;-75
2022/07/10 07:38:08;;;;;;;5.93;1.25;;;17.30;99.90;;;;;;5072161;28;20056;-76
2022/07/10 07:40:34;;;;;;;8.40;0.95;;;17.30;99.90;;;;;;5073431;28;20044;-75
2022/07/10 07:43:00;;;;;;;7.30;1.98;;;17.30;99.90;;;;;;5071916;28;20048;-76
2022/07/10 07:45:26;;;;;;;9.60;2.30;;;17.30;99.90;;;;;;5073604;28;20119;-75
2022/07/10 07:47:56;;;;;;;4.95;1.25;;;17.30;99.90;;;;;;5082681;28;20044;-76
2022/07/10 07:50:25;;;;;;;6.63;1.50;;;17.20;99.90;;;;;;5073063;28;20040;-75
2022/07/10 07:52:51;;;;;;;8.55;1.58;;;17.00;99.90;;;;;;5071758;28;20060;-75
2022/07/10 07:55:18;;;;;;;6.28;1.35;;;17.00;99.90;;;;;;5089397;28;20043;-77
2022/07/10 07:57:44;;;;;;;8.27;1.33;;;17.00;99.90;;;;;;5092605;28;20499;-76
2022/07/10 08:00:12;;;;;;;8.90;1.95;;;16.90;99.90;;;;;;5092885;28;20104;-76
2022/07/10 08:02:38;;;;;;;12.65;2.83;;;16.90;99.90;;;;;;5093046;28;20474;-75
2022/07/10 08:05:04;;;;;;;10.15;2.05;;;16.80;99.90;;;;;;5093100;28;20043;-76
2022/07/10 08:07:33;;;;;;;10.88;1.65;;;16.90;99.90;;;;;;5097374;28;20047;-76
2022/07/10 08:09:59;;;;;;;8.90;1.40;;;16.90;99.90;;;;;;5097312;28;20040;-76
2022/07/10 08:12:25;;;;;;;12.85;1.88;;;16.80;99.90;;;;;;5097386;28;20417;-75
2022/07/10 08:14:50;;;;;;;7.60;1.80;;;16.90;99.90;;;;;;5095709;28;20048;-76
2022/07/10 08:17:16;;;;;;;10.38;1.45;;;16.90;99.90;;;;;;5089494;28;20109;-76
2022/07/10 08:19:41;;;;;;;7.05;1.75;;;16.90;99.90;;;;;;5094274;28;20079;-75
2022/07/10 08:22:07;;;;;;;5.90;1.67;;;16.90;99.90;;;;;;5096988;28;20044;-75
2022/07/10 08:24:33;;;;;;;7.47;1.50;;;16.90;99.90;;;;;;5096770;28;20044;-76
2022/07/10 08:26:58;;;;;;;7.18;1.40;;;16.90;99.90;;;;;;5090082;28;20143;-76
2022/07/10 08:29:24;;;;;;;11.82;2.60;;;16.80;99.90;;;;;;5078737;28;20076;-76
2022/07/10 08:31:49;;;;;;;14.65;1.98;;;16.80;99.90;;;;;;5076429;28;20059;-75
2022/07/10 08:34:15;;;;;;;7.07;1.27;;;16.80;99.90;;;;;;5076490;28;20040;-76
2022/07/10 08:36:40;;;;;;;9.32;1.63;;;16.80;99.90;;;;;;5082340;28;20055;-75
2022/07/10 08:39:06;;;;;;;11.23;2.30;;;16.90;99.90;;;;;;5095971;28;20161;-75
2022/07/10 08:41:36;;;;;;;15.00;2.00;;;16.90;99.90;;;;;;5096414;28;20119;-75
2022/07/10 08:44:01;;;;;;;12.27;2.28;;;16.80;99.90;;;;;;5095100;28;20048;-75
2022/07/10 08:46:28;;;;;;;9.25;2.25;;;16.70;99.90;;;;;;5051392;28;20107;-75
2022/07/10 08:48:58;;;;;;;12.20;2.28;;;16.60;99.90;;;;;;5079041;28;20084;-78
2022/07/10 08:51:45;;;;;;;8.43;2.30;;;16.50;99.90;;;;;;5095900;28;20048;-76
2022/07/10 08:54:15;;;;;;;8.05;1.90;;;16.50;99.90;;;;;;5097420;28;20051;-75
2022/07/10 08:56:41;;;;;;;9.23;2.15;;;16.50;99.90;;;;;;5094898;28;20044;-76
2022/07/10 08:59:08;;;;;;;11.23;2.72;;;16.40;99.90;;;;;;5096181;28;20051;-76
2022/07/10 09:01:34;;;;;;;11.30;2.10;;;16.40;99.90;;;;;;5096362;28;20048;-76
2022/07/10 09:04:00;;;;;;;13.73;2.85;;;16.40;99.90;;;;;;5078792;28;20491;-76
2022/07/10 09:06:28;;;;;;;10.40;2.75;;;16.40;99.90;;;;;;5074490;28;20044;-75
2022/07/10 09:09:05;;;;;;;8.10;2.25;;;16.40;99.90;;;;;;5074508;28;20052;-75
2022/07/10 09:11:32;;;;;;;14.63;2.85;;;16.40;99.90;;;;;;5075419;28;20058;-74
2022/07/10 09:14:07;;;;;;;12.68;2.90;;;16.30;99.90;;;;;;5075689;28;20411;-75
2022/07/10 09:16:35;;;;;;;11.55;2.50;;;16.30;99.90;;;;;;5073521;28;20517;-74
2022/07/10 09:19:21;;;;;;;16.45;4.03;;;16.30;99.90;;;;;;5075807;28;20041;-75
2022/07/10 09:22:08;;;;;;;12.32;3.05;;;16.30;99.90;;;;;;5075790;28;20048;-76
2022/07/10 09:24:45;;;;;;;11.48;2.92;;;16.30;99.90;;;;;;5075441;28;20460;-75
2022/07/10 09:27:12;;;;;;;16.25;3.08;;;16.20;99.90;;;;;;5091060;28;20059;-76
2022/07/10 09:29:51;;;;;;;15.10;3.28;;;16.30;99.90;;;;;;5075630;28;20044;-76
2022/07/10 09:32:17;;;;;;;13.55;3.45;;;16.40;99.90;;;;;;5073306;28;20087;-76
2022/07/10 09:34:45;;;;;;;16.05;3.03;;;16.40;99.90;;;;;;5075166;28;20068;-76
2022/07/10 09:37:20;;;;;;;10.25;2.97;;;16.40;99.90;;;;;;5075373;28;20130;-75
2022/07/10 09:39:59;;;;;;;10.43;3.25;;;16.50;99.90;;;;;;5090998;28;20056;-75
2022/07/10 09:42:39;;;;;;;13.50;3.78;;;16.40;99.90;;;;;;5075326;28;20045;-76
2022/07/10 09:45:13;;;;;;;16.75;3.53;;;16.40;99.90;;;;;;5075027;28;20044;-76
2022/07/10 09:48:04;;;;;;;16.65;3.10;;;16.40;99.90;;;;;;5090474;28;20055;-75
2022/07/10 09:50:34;;;;;;;9.50;2.63;;;16.50;99.90;;;;;;5074476;28;20123;-76
2022/07/10 09:53:02;;;;;;;15.73;3.17;;;16.70;99.90;;;;;;5084131;28;20056;-76
2022/07/10 09:55:37;;;;;;;10.05;2.67;;;16.70;99.90;;;;;;5075874;28;20491;-76
2022/07/10 09:58:05;;;;;;;12.65;2.80;;;16.80;99.90;;;;;;5075058;28;20036;-76
2022/07/10 10:00:45;;;;;;;11.57;2.80;;;16.80;99.90;;;;;;5073661;28;20056;-77
2022/07/10 10:03:14;;;;;;;10.48;2.75;;;16.90;99.90;;;;;;5074815;28;20062;-77
2022/07/10 10:05:49;;;;;;;11.00;2.97;;;16.90;99.90;;;;;;5074661;28;20044;-77
2022/07/10 10:08:27;;;;;;;9.80;2.47;;;16.80;99.90;;;;;;5090202;28;20060;-77
2022/07/10 10:10:56;;;;;;;5.38;1.60;;;16.80;99.90;;;;;;5074458;28;20083;-77
2022/07/10 10:13:25;;;;;;;10.13;2.63;;;16.70;99.90;;;;;;5074717;28;20041;-77
2022/07/10 10:15:51;;;;;;;14.25;2.67;;;16.70;99.90;;;;;;5074553;28;20059;-77
2022/07/10 10:18:24;;;;;;;8.30;2.90;;;16.70;99.90;;;;;;5074286;28;20111;-76
2022/07/10 10:20:52;;;;;;;11.50;2.60;;;16.70;99.90;;;;;;5073934;28;20056;-76
2022/07/10 10:23:23;;;;;;;9.48;3.03;;;16.70;99.90;;;;;;5074473;28;20044;-76
2022/07/10 10:25:54;;;;;;;8.57;2.55;;;16.80;99.90;;;;;;5074346;28;20040;-76
2022/07/10 10:28:23;;;;;;;10.45;3.35;;;16.90;99.90;;;;;;5074154;28;20044;-77
2022/07/10 10:30:57;;;;;;;7.32;2.67;;;17.00;99.90;;;;;;5074222;28;20109;-76
2022/07/10 10:33:31;;;;;;;14.00;2.95;;;17.10;99.90;;;;;;5072596;28;20088;-76
2022/07/10 10:36:03;;;;;;;12.43;2.33;;;17.20;99.90;;;;;;5089626;28;20044;-77
2022/07/10 10:38:56;;;;;;;9.85;2.85;;;17.30;99.90;;;;;;5074108;28;20076;-76
2022/07/10 10:41:26;;;;;;;7.15;2.53;;;17.40;99.90;;;;;;5073805;28;20410;-77
2022/07/10 10:44:13;;;;;;;13.57;2.70;;;17.60;99.90;;;;;;5089762;28;20555;-77
2022/07/10 10:46:53;;;;;;;12.27;2.50;;;17.70;99.90;;;;;;5089437;28;20062;-77
2022/07/10 10:49:19;;;;;;;11.65;3.30;;;17.70;99.90;;;;;;5073708;28;20402;-77
2022/07/10 10:52:02;;;;;;;8.68;2.40;;;17.70;99.90;;;;;;5072392;28;20047;-77
2022/07/10 10:54:29;;;;;;;7.57;2.53;;;17.80;99.90;;;;;;5072473;28;20459;-78
2022/07/10 10:57:15;;;;;;;10.00;2.03;;;17.90;99.90;;;;;;5072353;28;20153;-77
2022/07/10 10:59:47;;;;;;;8.18;2.05;;;18.00;99.90;;;;;;5072626;28;20052;-78
2022/07/10 11:02:34;;;;;;;12.20;2.42;;;17.90;99.90;;;;;;5073627;28;20399;-77
2022/07/10 11:05:21;;;;;;;11.50;2.90;;;18.00;99.90;;;;;;5073736;28;20044;-77
2022/07/10 11:07:56;;;;;;;9.70;3.30;;;18.00;99.90;;;;;;5073699;28;20090;-76
2022/07/10 11:10:28;;;;;;;10.88;3.05;;;17.90;99.90;;;;;;5073598;28;20064;-76
2022/07/10 11:13:00;;;;;;;9.27;2.65;;;17.80;99.90;;;;;;5073588;28;20044;-76
2022/07/10 11:15:30;;;;;;;10.32;2.72;;;17.80;99.90;;;;;;5073656;28;20036;-76
2022/07/10 11:17:57;;;;;;;9.13;2.50;;;17.80;99.90;;;;;;5072370;28;20045;-76
2022/07/10 11:20:23;;;;;;;8.32;2.20;;;17.70;99.90;;;;;;5073302;28;20110;-76
2022/07/10 11:23:19;;;;;;;10.15;2.50;;;17.80;99.90;;;;;;5073484;28;20044;-76
2022/07/10 11:26:07;;;;;;;9.13;2.17;;;17.90;99.90;;;;;;5073457;28;20040;-77
2022/07/10 11:28:56;;;;;;;5.28;1.80;;;18.00;99.90;;;;;;5072067;28;20053;-76
2022/07/10 11:31:24;;;;;;;12.65;2.03;;;18.20;99.90;;;;;;5073072;28;20119;-76
2022/07/10 11:33:52;;;;;;;5.03;1.73;;;18.20;99.90;;;;;;5073144;28;20487;-76
2022/07/10 11:36:28;;;;;;;8.32;2.00;;;18.30;99.90;;;;;;5072199;28;20041;-76
2022/07/10 11:39:02;;;;;;;6.50;1.70;;;18.30;99.90;;;;;;5073447;28;20487;-76
2022/07/10 11:41:29;;;;;;;7.43;1.88;;;18.30;99.90;;;;;;5072632;28;20044;-76
2022/07/10 11:44:02;;;;;;;6.68;2.38;;;18.20;99.90;;;;;;5071806;28;20040;-77
2022/07/10 11:46:30;;;;;;;8.68;3.20;;;18.30;99.90;;;;;;5071978;28;20072;-76
2022/07/10 11:48:56;;;;;;;4.85;1.90;;;18.20;99.90;;;;;;5073085;28;20098;-77
2022/07/10 11:51:31;;;;;;;6.00;3.03;;;18.30;99.90;;;;;;5071770;28;20082;-76
2022/07/10 11:54:05;;;;;;;15.13;2.58;;;18.30;99.90;;;;;;5072984;28;20115;-76
2022/07/10 11:56:36;;;;;;;11.18;2.50;;;18.20;99.90;;;;;;5073158;28;20045;-76
2022/07/10 11:59:09;;;;;;;8.52;2.33;;;18.20;99.90;;;;;;5072928;28;20124;-77
2022/07/10 12:01:41;;;;;;;;;;;18.20;99.90;;;;;;5088931;28;20401;-76
2022/07/10 12:04:09;;;;;;;12.37;3.20;;;18.20;99.90;;;;;;5071964;28;19955;-76
2022/07/10 12:06:37;;;;;;;12.63;3.05;;;18.10;99.90;;;;;;5072833;28;20384;-77
2022/07/10 12:09:14;;;;;;;8.70;2.72;;;18.00;99.90;;;;;;5071820;28;20044;-76
2022/07/10 12:11:56;;;;;;;6.15;2.00;;;18.10;99.90;;;;;;5073134;28;20059;-76
2022/07/10 12:14:22;;;;;;;4.78;1.95;;;18.00;99.90;;;;;;5072906;28;20080;-77
2022/07/10 12:16:52;;;;;;;5.50;1.90;;;18.00;99.90;;;;;;5072812;28;20055;-77
2022/07/10 12:19:36;;;;;;;10.45;2.88;;;17.90;99.90;;;;;;5072537;28;20396;-79
2022/07/10 12:22:04;;;;;;;9.80;2.35;;;17.90;99.90;;;;;;5072649;28;20395;-77
2022/07/10 12:24:30;;;;;;;9.63;2.22;;;17.80;99.90;;;;;;5071374;28;20056;-77
2022/07/10 12:26:56;;;;;;;5.30;2.60;;;17.90;99.90;;;;;;5088164;28;20048;-77
2022/07/10 12:29:24;;;;;;;10.63;2.70;;;17.80;99.90;;;;;;5073049;28;20041;-76
2022/07/10 12:31:57;;;;;;;12.82;3.33;;;17.80;99.90;;;;;;5088516;28;20458;-76
2022/07/10 12:34:34;;;;;;;;;;;17.80;99.90;;;;;;5073150;28;20459;-77
2022/07/10 12:37:07;;;;;;;8.23;2.47;;;17.90;99.90;;;;;;5072872;28;19956;-76
2022/07/10 12:39:37;;;;;;;10.45;3.08;;;17.90;99.90;;;;;;5072613;28;20083;-77
2022/07/10 12:42:04;;;;;;;12.55;2.92;;;18.00;99.90;;;;;;5072588;28;20048;-76
2022/07/10 12:44:30;;;;;;;10.55;3.17;;;18.00;99.90;;;;;;5072596;28;20505;-76
2022/07/10 12:47:11;;;;;;;9.90;2.60;;;18.10;99.90;;;;;;5088048;28;20045;-76
2022/07/10 12:49:57;;;;;;;9.20;2.65;;;18.20;99.90;;;;;;5072657;28;20116;-76
2022/07/10 12:52:31;;;;;;;5.28;2.38;;;18.30;99.90;;;;;;5089625;28;20063;-76
2022/07/10 12:55:15;;;;;;;12.95;2.80;;;18.50;99.90;;;;;;5076125;28;20048;-76